Terminal Aerodrome Forecast
Issued by NWS

Home | Current Version | Previous Version | Text Only | Print | Product List | Glossary On
Versions: 1 2 3 4 5 6 7 8 9 10 11 12 13 14 15 16 17 18 19
000
FTUS43 KAPX 221720
TAFTVC
TAF
KTVC 221720Z 2218/2318 09006KT P6SM BKN100
     FM230300 12008KT P6SM OVC070 WS020/16040KT
     FM230600 13010KT P6SM BKN040 WS020/16045KT
     FM230700 13009KT P6SM VCSH BKN040 WS020/16045KT
     FM230900 14008KT 6SM -RAPL BR OVC025 WS020/18040KT
     FM231000 15008KT 5SM -RAPL BR OVC015 WS020/18040KT
     FM231200 15007KT 4SM -FZRA BR OVC015 WS020/18035KT
     FM231500 19006KT 5SM -RA BR OVC015=

USA.gov is the U.S. government's official web portal to all federal, state and local government web resources and services.